sensor_id;sensor_type;location;lat;lon;timestamp;P1;durP1;ratioP1;P2;durP2;ratioP2
50781;SDS011;36749;37.428;-121.972;2023-08-08T00:00:33;12.27;;;4.78;;
50781;SDS011;36749;37.428;-121.972;2023-08-08T00:03:00;10.93;;;4.70;;
50781;SDS011;36749;37.428;-121.972;2023-08-08T00:05:27;16.05;;;5.25;;
50781;SDS011;36749;37.428;-121.972;2023-08-08T00:07:53;12.27;;;5.47;;
50781;SDS011;36749;37.428;-121.972;2023-08-08T00:10:19;13.23;;;5.22;;
50781;SDS011;36749;37.428;-121.972;2023-08-08T00:12:45;12.13;;;5.40;;
50781;SDS011;36749;37.428;-121.972;2023-08-08T00:15:12;15.65;;;5.40;;
50781;SDS011;36749;37.428;-121.972;2023-08-08T00:17:38;14.32;;;5.20;;
50781;SDS011;36749;37.428;-121.972;2023-08-08T00:20:04;27.45;;;5.55;;
50781;SDS011;36749;37.428;-121.972;2023-08-08T00:22:32;21.38;;;5.38;;
50781;SDS011;36749;37.428;-121.972;2023-08-08T00:24:58;16.67;;;5.80;;
50781;SDS011;36749;37.428;-121.972;2023-08-08T00:27:25;22.08;;;5.60;;
50781;SDS011;36749;37.428;-121.972;2023-08-08T00:29:51;15.63;;;5.30;;
50781;SDS011;36749;37.428;-121.972;2023-08-08T00:32:18;12.30;;;5.03;;
50781;SDS011;36749;37.428;-121.972;2023-08-08T00:34:45;13.25;;;4.63;;
50781;SDS011;36749;37.428;-121.972;2023-08-08T00:37:11;11.48;;;4.93;;
50781;SDS011;36749;37.428;-121.972;2023-08-08T00:39:38;46.28;;;7.95;;
50781;SDS011;36749;37.428;-121.972;2023-08-08T00:42:07;12.57;;;5.25;;
50781;SDS011;36749;37.428;-121.972;2023-08-08T00:44:34;16.08;;;5.30;;
50781;SDS011;36749;37.428;-121.972;2023-08-08T00:47:00;11.50;;;4.93;;
50781;SDS011;36749;37.428;-121.972;2023-08-08T00:49:26;15.45;;;5.68;;
50781;SDS011;36749;37.428;-121.972;2023-08-08T00:51:52;13.77;;;4.75;;
50781;SDS011;36749;37.428;-121.972;2023-08-08T00:54:19;16.90;;;5.25;;
50781;SDS011;36749;37.428;-121.972;2023-08-08T00:56:46;42.42;;;6.20;;
50781;SDS011;36749;37.428;-121.972;2023-08-08T00:59:13;20.20;;;5.60;;
50781;SDS011;36749;37.428;-121.972;2023-08-08T01:01:39;13.57;;;5.10;;
50781;SDS011;36749;37.428;-121.972;2023-08-08T01:04:06;13.23;;;4.57;;
50781;SDS011;36749;37.428;-121.972;2023-08-08T01:06:41;15.93;;;5.95;;
50781;SDS011;36749;37.428;-121.972;2023-08-08T01:09:28;12.60;;;4.70;;
50781;SDS011;36749;37.428;-121.972;2023-08-08T01:11:59;16.40;;;4.85;;
50781;SDS011;36749;37.428;-121.972;2023-08-08T01:14:26;13.10;;;5.18;;
50781;SDS011;36749;37.428;-121.972;2023-08-08T01:16:54;11.77;;;4.70;;
50781;SDS011;36749;37.428;-121.972;2023-08-08T01:19:25;12.50;;;4.82;;
50781;SDS011;36749;37.428;-121.972;2023-08-08T01:21:53;15.40;;;5.00;;
50781;SDS011;36749;37.428;-121.972;2023-08-08T01:24:23;12.57;;;4.57;;
50781;SDS011;36749;37.428;-121.972;2023-08-08T01:26:54;13.95;;;5.18;;
50781;SDS011;36749;37.428;-121.972;2023-08-08T01:29:21;9.95;;;4.47;;
50781;SDS011;36749;37.428;-121.972;2023-08-08T01:31:47;10.63;;;4.50;;
50781;SDS011;36749;37.428;-121.972;2023-08-08T01:34:14;15.38;;;5.10;;
50781;SDS011;36749;37.428;-121.972;2023-08-08T01:36:49;16.13;;;5.80;;
50781;SDS011;36749;37.428;-121.972;2023-08-08T01:39:44;13.27;;;5.40;;
50781;SDS011;36749;37.428;-121.972;2023-08-08T01:42:12;14.90;;;5.00;;
50781;SDS011;36749;37.428;-121.972;2023-08-08T01:44:41;15.65;;;5.35;;
50781;SDS011;36749;37.428;-121.972;2023-08-08T01:47:07;14.10;;;4.70;;
50781;SDS011;36749;37.428;-121.972;2023-08-08T01:49:34;12.38;;;4.82;;
50781;SDS011;36749;37.428;-121.972;2023-08-08T01:52:00;12.15;;;4.28;;
50781;SDS011;36749;37.428;-121.972;2023-08-08T01:54:27;15.40;;;5.40;;
50781;SDS011;36749;37.428;-121.972;2023-08-08T01:56:53;14.00;;;4.95;;
50781;SDS011;36749;37.428;-121.972;2023-08-08T01:59:19;13.57;;;5.45;;
50781;SDS011;36749;37.428;-121.972;2023-08-08T02:01:46;15.38;;;5.57;;
50781;SDS011;36749;37.428;-121.972;2023-08-08T02:04:13;15.15;;;5.22;;
50781;SDS011;36749;37.428;-121.972;2023-08-08T02:06:39;16.80;;;5.90;;
50781;SDS011;36749;37.428;-121.972;2023-08-08T02:09:06;16.13;;;5.30;;
50781;SDS011;36749;37.428;-121.972;2023-08-08T02:11:32;17.33;;;5.20;;
50781;SDS011;36749;37.428;-121.972;2023-08-08T02:13:59;16.40;;;4.63;;
50781;SDS011;36749;37.428;-121.972;2023-08-08T02:16:25;15.43;;;4.78;;
50781;SDS011;36749;37.428;-121.972;2023-08-08T02:18:51;15.07;;;4.70;;
50781;SDS011;36749;37.428;-121.972;2023-08-08T02:21:18;13.75;;;4.57;;
50781;SDS011;36749;37.428;-121.972;2023-08-08T02:23:44;10.73;;;4.35;;
50781;SDS011;36749;37.428;-121.972;2023-08-08T02:26:10;16.02;;;4.85;;
50781;SDS011;36749;37.428;-121.972;2023-08-08T02:28:37;14.68;;;4.55;;
50781;SDS011;36749;37.428;-121.972;2023-08-08T02:31:03;18.10;;;5.07;;
50781;SDS011;36749;37.428;-121.972;2023-08-08T02:33:30;15.02;;;4.47;;
50781;SDS011;36749;37.428;-121.972;2023-08-08T02:35:56;12.70;;;5.30;;
50781;SDS011;36749;37.428;-121.972;2023-08-08T02:38:23;15.07;;;5.45;;
50781;SDS011;36749;37.428;-121.972;2023-08-08T02:40:49;16.58;;;5.25;;
50781;SDS011;36749;37.428;-121.972;2023-08-08T02:43:15;14.10;;;5.00;;
50781;SDS011;36749;37.428;-121.972;2023-08-08T02:45:42;14.45;;;5.35;;
50781;SDS011;36749;37.428;-121.972;2023-08-08T02:48:08;18.45;;;5.82;;
50781;SDS011;36749;37.428;-121.972;2023-08-08T02:50:35;15.85;;;5.03;;
50781;SDS011;36749;37.428;-121.972;2023-08-08T02:53:01;16.15;;;6.40;;
50781;SDS011;36749;37.428;-121.972;2023-08-08T02:55:28;15.85;;;5.20;;
50781;SDS011;36749;37.428;-121.972;2023-08-08T02:57:56;18.83;;;6.55;;
50781;SDS011;36749;37.428;-121.972;2023-08-08T03:00:22;14.15;;;4.90;;
50781;SDS011;36749;37.428;-121.972;2023-08-08T03:02:49;15.50;;;5.05;;
50781;SDS011;36749;37.428;-121.972;2023-08-08T03:05:15;21.52;;;5.72;;
50781;SDS011;36749;37.428;-121.972;2023-08-08T03:07:41;16.98;;;5.82;;
50781;SDS011;36749;37.428;-121.972;2023-08-08T03:10:08;17.23;;;5.07;;
50781;SDS011;36749;37.428;-121.972;2023-08-08T03:12:34;34.13;;;7.15;;
50781;SDS011;36749;37.428;-121.972;2023-08-08T03:15:03;42.72;;;7.50;;
50781;SDS011;36749;37.428;-121.972;2023-08-08T03:17:29;23.77;;;5.07;;
50781;SDS011;36749;37.428;-121.972;2023-08-08T03:19:56;17.40;;;5.65;;
50781;SDS011;36749;37.428;-121.972;2023-08-08T03:22:22;18.65;;;4.97;;
50781;SDS011;36749;37.428;-121.972;2023-08-08T03:24:48;15.60;;;5.70;;
50781;SDS011;36749;37.428;-121.972;2023-08-08T03:27:14;15.10;;;5.03;;
50781;SDS011;36749;37.428;-121.972;2023-08-08T03:29:41;16.15;;;4.72;;
50781;SDS011;36749;37.428;-121.972;2023-08-08T03:32:07;17.00;;;5.40;;
50781;SDS011;36749;37.428;-121.972;2023-08-08T03:34:33;12.50;;;5.20;;
50781;SDS011;36749;37.428;-121.972;2023-08-08T03:36:59;15.40;;;4.82;;
50781;SDS011;36749;37.428;-121.972;2023-08-08T03:39:25;16.65;;;5.78;;
50781;SDS011;36749;37.428;-121.972;2023-08-08T03:41:52;17.08;;;5.30;;
50781;SDS011;36749;37.428;-121.972;2023-08-08T03:44:18;17.88;;;5.05;;
50781;SDS011;36749;37.428;-121.972;2023-08-08T03:46:44;14.73;;;5.00;;
50781;SDS011;36749;37.428;-121.972;2023-08-08T03:49:11;15.10;;;5.07;;
50781;SDS011;36749;37.428;-121.972;2023-08-08T03:51:37;13.55;;;4.57;;
50781;SDS011;36749;37.428;-121.972;2023-08-08T03:54:03;16.95;;;5.47;;
50781;SDS011;36749;37.428;-121.972;2023-08-08T03:56:30;12.77;;;4.90;;
50781;SDS011;36749;37.428;-121.972;2023-08-08T03:58:57;15.05;;;5.70;;
50781;SDS011;36749;37.428;-121.972;2023-08-08T04:01:23;15.30;;;4.70;;
50781;SDS011;36749;37.428;-121.972;2023-08-08T04:03:49;12.43;;;5.03;;
50781;SDS011;36749;37.428;-121.972;2023-08-08T04:06:15;11.43;;;5.03;;
50781;SDS011;36749;37.428;-121.972;2023-08-08T04:08:42;11.32;;;5.15;;
50781;SDS011;36749;37.428;-121.972;2023-08-08T04:11:08;12.80;;;4.72;;
50781;SDS011;36749;37.428;-121.972;2023-08-08T04:13:35;12.85;;;5.35;;
50781;SDS011;36749;37.428;-121.972;2023-08-08T04:16:02;17.70;;;5.75;;
50781;SDS011;36749;37.428;-121.972;2023-08-08T04:18:28;14.70;;;4.95;;
50781;SDS011;36749;37.428;-121.972;2023-08-08T04:20:54;16.30;;;4.88;;
50781;SDS011;36749;37.428;-121.972;2023-08-08T04:23:20;14.40;;;4.88;;
50781;SDS011;36749;37.428;-121.972;2023-08-08T04:25:50;13.70;;;4.72;;
50781;SDS011;36749;37.428;-121.972;2023-08-08T04:28:17;16.35;;;4.70;;
50781;SDS011;36749;37.428;-121.972;2023-08-08T04:30:44;13.25;;;5.15;;
50781;SDS011;36749;37.428;-121.972;2023-08-08T04:33:10;11.70;;;4.95;;
50781;SDS011;36749;37.428;-121.972;2023-08-08T04:35:36;14.05;;;5.13;;
50781;SDS011;36749;37.428;-121.972;2023-08-08T04:38:03;15.15;;;4.63;;
50781;SDS011;36749;37.428;-121.972;2023-08-08T04:40:29;13.48;;;4.43;;
50781;SDS011;36749;37.428;-121.972;2023-08-08T04:42:55;13.80;;;4.40;;
50781;SDS011;36749;37.428;-121.972;2023-08-08T04:45:22;14.02;;;4.95;;
50781;SDS011;36749;37.428;-121.972;2023-08-08T04:47:48;13.23;;;4.90;;
50781;SDS011;36749;37.428;-121.972;2023-08-08T04:50:14;15.20;;;4.43;;
50781;SDS011;36749;37.428;-121.972;2023-08-08T04:52:41;11.07;;;4.70;;
50781;SDS011;36749;37.428;-121.972;2023-08-08T04:55:07;12.32;;;4.45;;
50781;SDS011;36749;37.428;-121.972;2023-08-08T04:57:34;13.50;;;5.03;;
50781;SDS011;36749;37.428;-121.972;2023-08-08T05:00:01;13.30;;;5.30;;
50781;SDS011;36749;37.428;-121.972;2023-08-08T05:02:30;11.77;;;4.32;;
50781;SDS011;36749;37.428;-121.972;2023-08-08T05:04:57;10.43;;;4.10;;
50781;SDS011;36749;37.428;-121.972;2023-08-08T05:07:23;13.65;;;4.68;;
50781;SDS011;36749;37.428;-121.972;2023-08-08T05:09:49;14.57;;;4.50;;
50781;SDS011;36749;37.428;-121.972;2023-08-08T05:12:15;12.05;;;4.40;;
50781;SDS011;36749;37.428;-121.972;2023-08-08T05:14:42;12.57;;;4.60;;
50781;SDS011;36749;37.428;-121.972;2023-08-08T05:17:08;11.73;;;4.70;;
50781;SDS011;36749;37.428;-121.972;2023-08-08T05:19:35;9.27;;;4.28;;
50781;SDS011;36749;37.428;-121.972;2023-08-08T05:22:01;10.38;;;4.40;;
50781;SDS011;36749;37.428;-121.972;2023-08-08T05:24:27;10.38;;;4.53;;
50781;SDS011;36749;37.428;-121.972;2023-08-08T05:26:53;13.48;;;4.22;;
50781;SDS011;36749;37.428;-121.972;2023-08-08T05:29:20;13.70;;;4.22;;
50781;SDS011;36749;37.428;-121.972;2023-08-08T05:31:46;15.57;;;4.68;;
50781;SDS011;36749;37.428;-121.972;2023-08-08T05:34:13;11.20;;;4.47;;
50781;SDS011;36749;37.428;-121.972;2023-08-08T05:36:39;22.98;;;4.80;;
50781;SDS011;36749;37.428;-121.972;2023-08-08T05:39:05;14.90;;;4.30;;
50781;SDS011;36749;37.428;-121.972;2023-08-08T05:41:32;13.63;;;3.90;;
50781;SDS011;36749;37.428;-121.972;2023-08-08T05:43:59;10.90;;;4.10;;
50781;SDS011;36749;37.428;-121.972;2023-08-08T05:46:25;13.55;;;4.68;;
50781;SDS011;36749;37.428;-121.972;2023-08-08T05:48:51;12.57;;;4.15;;
50781;SDS011;36749;37.428;-121.972;2023-08-08T05:51:17;11.73;;;4.88;;
50781;SDS011;36749;37.428;-121.972;2023-08-08T05:53:43;10.63;;;3.60;;
50781;SDS011;36749;37.428;-121.972;2023-08-08T05:56:10;8.75;;;3.50;;
50781;SDS011;36749;37.428;-121.972;2023-08-08T05:58:37;10.98;;;3.90;;
50781;SDS011;36749;37.428;-121.972;2023-08-08T06:01:03;13.55;;;3.88;;
50781;SDS011;36749;37.428;-121.972;2023-08-08T06:03:37;13.95;;;4.47;;
50781;SDS011;36749;37.428;-121.972;2023-08-08T06:06:03;11.90;;;3.60;;
50781;SDS011;36749;37.428;-121.972;2023-08-08T06:08:30;10.15;;;3.55;;
50781;SDS011;36749;37.428;-121.972;2023-08-08T06:10:57;9.02;;;3.40;;
50781;SDS011;36749;37.428;-121.972;2023-08-08T06:13:23;10.95;;;4.20;;
50781;SDS011;36749;37.428;-121.972;2023-08-08T06:15:49;11.13;;;4.00;;
50781;SDS011;36749;37.428;-121.972;2023-08-08T06:18:16;11.00;;;3.90;;
50781;SDS011;36749;37.428;-121.972;2023-08-08T06:20:42;10.35;;;4.00;;
50781;SDS011;36749;37.428;-121.972;2023-08-08T06:23:12;10.10;;;3.40;;
50781;SDS011;36749;37.428;-121.972;2023-08-08T06:25:40;8.80;;;3.92;;
50781;SDS011;36749;37.428;-121.972;2023-08-08T06:28:06;10.20;;;3.50;;
50781;SDS011;36749;37.428;-121.972;2023-08-08T06:30:32;7.03;;;4.22;;
50781;SDS011;36749;37.428;-121.972;2023-08-08T06:32:58;10.30;;;3.90;;
50781;SDS011;36749;37.428;-121.972;2023-08-08T06:35:25;9.25;;;3.35;;
50781;SDS011;36749;37.428;-121.972;2023-08-08T06:37:51;10.73;;;3.67;;
50781;SDS011;36749;37.428;-121.972;2023-08-08T06:40:17;8.80;;;4.20;;
50781;SDS011;36749;37.428;-121.972;2023-08-08T06:42:43;12.20;;;4.07;;
50781;SDS011;36749;37.428;-121.972;2023-08-08T06:45:10;8.30;;;3.70;;
50781;SDS011;36749;37.428;-121.972;2023-08-08T06:47:36;11.88;;;3.60;;
50781;SDS011;36749;37.428;-121.972;2023-08-08T06:50:02;9.00;;;3.30;;
50781;SDS011;36749;37.428;-121.972;2023-08-08T06:52:30;8.02;;;3.60;;
50781;SDS011;36749;37.428;-121.972;2023-08-08T06:54:56;9.38;;;3.17;;
50781;SDS011;36749;37.428;-121.972;2023-08-08T06:57:22;10.45;;;3.28;;
50781;SDS011;36749;37.428;-121.972;2023-08-08T06:59:48;10.00;;;3.78;;
50781;SDS011;36749;37.428;-121.972;2023-08-08T07:02:16;12.02;;;4.82;;
50781;SDS011;36749;37.428;-121.972;2023-08-08T07:04:43;9.73;;;3.45;;
50781;SDS011;36749;37.428;-121.972;2023-08-08T07:07:09;9.10;;;3.65;;
50781;SDS011;36749;37.428;-121.972;2023-08-08T07:09:36;9.90;;;3.95;;
50781;SDS011;36749;37.428;-121.972;2023-08-08T07:12:03;8.13;;;3.60;;
50781;SDS011;36749;37.428;-121.972;2023-08-08T07:14:29;8.45;;;3.30;;
50781;SDS011;36749;37.428;-121.972;2023-08-08T07:16:56;6.07;;;2.97;;
50781;SDS011;36749;37.428;-121.972;2023-08-08T07:19:22;9.57;;;3.72;;
50781;SDS011;36749;37.428;-121.972;2023-08-08T07:21:48;9.82;;;4.10;;
50781;SDS011;36749;37.428;-121.972;2023-08-08T07:24:16;9.43;;;3.88;;
50781;SDS011;36749;37.428;-121.972;2023-08-08T07:26:42;10.77;;;3.95;;
50781;SDS011;36749;37.428;-121.972;2023-08-08T07:29:08;12.52;;;4.05;;
50781;SDS011;36749;37.428;-121.972;2023-08-08T07:31:34;12.95;;;3.97;;
50781;SDS011;36749;37.428;-121.972;2023-08-08T07:34:01;15.70;;;5.68;;
50781;SDS011;36749;37.428;-121.972;2023-08-08T07:36:27;10.13;;;4.20;;
50781;SDS011;36749;37.428;-121.972;2023-08-08T07:38:53;12.15;;;5.00;;
50781;SDS011;36749;37.428;-121.972;2023-08-08T07:41:25;12.88;;;4.25;;
50781;SDS011;36749;37.428;-121.972;2023-08-08T07:43:52;8.80;;;3.88;;
50781;SDS011;36749;37.428;-121.972;2023-08-08T07:46:18;7.90;;;3.30;;
50781;SDS011;36749;37.428;-121.972;2023-08-08T07:48:44;7.47;;;4.18;;
50781;SDS011;36749;37.428;-121.972;2023-08-08T07:51:10;9.35;;;3.95;;
50781;SDS011;36749;37.428;-121.972;2023-08-08T07:53:37;9.25;;;4.45;;
50781;SDS011;36749;37.428;-121.972;2023-08-08T07:56:03;12.75;;;5.38;;
50781;SDS011;36749;37.428;-121.972;2023-08-08T07:58:31;11.10;;;4.78;;
50781;SDS011;36749;37.428;-121.972;2023-08-08T08:00:58;12.82;;;4.47;;
50781;SDS011;36749;37.428;-121.972;2023-08-08T08:03:25;11.75;;;3.50;;
50781;SDS011;36749;37.428;-121.972;2023-08-08T08:05:52;9.77;;;4.10;;
50781;SDS011;36749;37.428;-121.972;2023-08-08T08:08:19;9.90;;;4.07;;
50781;SDS011;36749;37.428;-121.972;2023-08-08T08:10:47;10.85;;;4.30;;
50781;SDS011;36749;37.428;-121.972;2023-08-08T08:13:14;12.07;;;4.18;;
50781;SDS011;36749;37.428;-121.972;2023-08-08T08:15:40;10.63;;;3.53;;
50781;SDS011;36749;37.428;-121.972;2023-08-08T08:18:06;12.30;;;4.10;;
50781;SDS011;36749;37.428;-121.972;2023-08-08T08:20:32;8.93;;;4.03;;
50781;SDS011;36749;37.428;-121.972;2023-08-08T08:22:59;8.23;;;4.07;;
50781;SDS011;36749;37.428;-121.972;2023-08-08T08:25:25;10.23;;;4.55;;
50781;SDS011;36749;37.428;-121.972;2023-08-08T08:27:52;10.45;;;4.63;;
50781;SDS011;36749;37.428;-121.972;2023-08-08T08:30:18;11.88;;;4.38;;
50781;SDS011;36749;37.428;-121.972;2023-08-08T08:32:44;8.40;;;3.85;;
50781;SDS011;36749;37.428;-121.972;2023-08-08T08:35:11;8.48;;;3.50;;
50781;SDS011;36749;37.428;-121.972;2023-08-08T08:37:38;8.73;;;3.60;;
50781;SDS011;36749;37.428;-121.972;2023-08-08T08:40:04;7.90;;;3.58;;
50781;SDS011;36749;37.428;-121.972;2023-08-08T08:42:32;10.65;;;3.85;;
50781;SDS011;36749;37.428;-121.972;2023-08-08T08:44:58;7.68;;;3.47;;
50781;SDS011;36749;37.428;-121.972;2023-08-08T08:47:25;7.43;;;3.58;;
50781;SDS011;36749;37.428;-121.972;2023-08-08T08:49:51;9.20;;;3.58;;
50781;SDS011;36749;37.428;-121.972;2023-08-08T08:52:18;8.75;;;3.45;;
50781;SDS011;36749;37.428;-121.972;2023-08-08T08:54:45;7.95;;;3.25;;
50781;SDS011;36749;37.428;-121.972;2023-08-08T08:57:11;9.00;;;3.65;;
50781;SDS011;36749;37.428;-121.972;2023-08-08T08:59:38;9.35;;;3.22;;
50781;SDS011;36749;37.428;-121.972;2023-08-08T09:02:04;7.88;;;3.80;;
50781;SDS011;36749;37.428;-121.972;2023-08-08T09:04:30;9.40;;;3.53;;
50781;SDS011;36749;37.428;-121.972;2023-08-08T09:06:57;6.95;;;3.10;;
50781;SDS011;36749;37.428;-121.972;2023-08-08T09:09:23;6.72;;;3.35;;
50781;SDS011;36749;37.428;-121.972;2023-08-08T09:11:50;9.77;;;3.60;;
50781;SDS011;36749;37.428;-121.972;2023-08-08T09:14:19;10.30;;;3.70;;
50781;SDS011;36749;37.428;-121.972;2023-08-08T09:16:47;7.30;;;3.53;;
50781;SDS011;36749;37.428;-121.972;2023-08-08T09:19:14;9.25;;;3.80;;
50781;SDS011;36749;37.428;-121.972;2023-08-08T09:21:41;9.50;;;3.72;;
50781;SDS011;36749;37.428;-121.972;2023-08-08T09:24:07;10.93;;;4.10;;
50781;SDS011;36749;37.428;-121.972;2023-08-08T09:26:33;12.50;;;4.65;;
50781;SDS011;36749;37.428;-121.972;2023-08-08T09:29:00;10.18;;;3.92;;
50781;SDS011;36749;37.428;-121.972;2023-08-08T09:31:27;12.68;;;4.78;;
50781;SDS011;36749;37.428;-121.972;2023-08-08T09:33:55;11.85;;;4.20;;
50781;SDS011;36749;37.428;-121.972;2023-08-08T09:36:22;8.60;;;3.65;;
50781;SDS011;36749;37.428;-121.972;2023-08-08T09:38:49;8.90;;;3.60;;
50781;SDS011;36749;37.428;-121.972;2023-08-08T09:41:15;8.25;;;3.30;;
50781;SDS011;36749;37.428;-121.972;2023-08-08T09:43:45;9.38;;;3.50;;
50781;SDS011;36749;37.428;-121.972;2023-08-08T09:46:11;8.05;;;3.45;;
50781;SDS011;36749;37.428;-121.972;2023-08-08T09:48:38;9.60;;;3.88;;
50781;SDS011;36749;37.428;-121.972;2023-08-08T09:51:05;10.07;;;4.05;;
50781;SDS011;36749;37.428;-121.972;2023-08-08T09:53:32;13.50;;;4.97;;
50781;SDS011;36749;37.428;-121.972;2023-08-08T09:55:58;9.70;;;4.25;;
50781;SDS011;36749;37.428;-121.972;2023-08-08T09:58:27;9.63;;;4.00;;
50781;SDS011;36749;37.428;-121.972;2023-08-08T10:00:53;11.07;;;4.53;;
50781;SDS011;36749;37.428;-121.972;2023-08-08T10:03:19;10.25;;;4.22;;
50781;SDS011;36749;37.428;-121.972;2023-08-08T10:05:46;9.98;;;4.30;;
50781;SDS011;36749;37.428;-121.972;2023-08-08T10:08:14;9.05;;;3.90;;
50781;SDS011;36749;37.428;-121.972;2023-08-08T10:10:41;9.38;;;4.63;;
50781;SDS011;36749;37.428;-121.972;2023-08-08T10:13:08;12.02;;;4.72;;
50781;SDS011;36749;37.428;-121.972;2023-08-08T10:15:39;8.02;;;4.28;;
50781;SDS011;36749;37.428;-121.972;2023-08-08T10:18:05;10.18;;;4.30;;
50781;SDS011;36749;37.428;-121.972;2023-08-08T10:20:32;10.07;;;4.05;;
50781;SDS011;36749;37.428;-121.972;2023-08-08T10:23:02;10.75;;;4.65;;
50781;SDS011;36749;37.428;-121.972;2023-08-08T10:25:30;9.25;;;4.45;;
50781;SDS011;36749;37.428;-121.972;2023-08-08T10:28:03;11.45;;;4.35;;
50781;SDS011;36749;37.428;-121.972;2023-08-08T10:30:30;12.00;;;5.32;;
50781;SDS011;36749;37.428;-121.972;2023-08-08T10:33:20;13.35;;;5.45;;
50781;SDS011;36749;37.428;-121.972;2023-08-08T10:36:01;8.80;;;4.32;;
50781;SDS011;36749;37.428;-121.972;2023-08-08T10:38:39;10.90;;;4.30;;
50781;SDS011;36749;37.428;-121.972;2023-08-08T10:41:14;10.65;;;5.53;;
50781;SDS011;36749;37.428;-121.972;2023-08-08T10:43:49;8.68;;;4.05;;
50781;SDS011;36749;37.428;-121.972;2023-08-08T10:46:24;8.57;;;3.92;;
50781;SDS011;36749;37.428;-121.972;2023-08-08T10:48:52;10.68;;;4.65;;
50781;SDS011;36749;37.428;-121.972;2023-08-08T10:51:20;10.75;;;4.45;;
50781;SDS011;36749;37.428;-121.972;2023-08-08T10:53:46;11.45;;;5.10;;
50781;SDS011;36749;37.428;-121.972;2023-08-08T10:56:17;10.13;;;4.28;;
50781;SDS011;36749;37.428;-121.972;2023-08-08T10:58:49;10.23;;;4.35;;
50781;SDS011;36749;37.428;-121.972;2023-08-08T11:01:15;11.30;;;4.22;;
50781;SDS011;36749;37.428;-121.972;2023-08-08T11:03:42;9.85;;;4.60;;
50781;SDS011;36749;37.428;-121.972;2023-08-08T11:06:10;10.52;;;4.32;;
50781;SDS011;36749;37.428;-121.972;2023-08-08T11:08:37;14.63;;;5.05;;
50781;SDS011;36749;37.428;-121.972;2023-08-08T11:11:04;11.20;;;4.55;;
50781;SDS011;36749;37.428;-121.972;2023-08-08T11:13:31;9.07;;;4.38;;
50781;SDS011;36749;37.428;-121.972;2023-08-08T11:15:58;10.38;;;4.65;;
50781;SDS011;36749;37.428;-121.972;2023-08-08T11:18:27;7.60;;;4.10;;
50781;SDS011;36749;37.428;-121.972;2023-08-08T11:20:54;8.43;;;4.40;;
50781;SDS011;36749;37.428;-121.972;2023-08-08T11:23:20;7.65;;;3.88;;
50781;SDS011;36749;37.428;-121.972;2023-08-08T11:25:46;9.13;;;4.90;;
50781;SDS011;36749;37.428;-121.972;2023-08-08T11:28:13;7.68;;;4.20;;
50781;SDS011;36749;37.428;-121.972;2023-08-08T11:30:41;8.63;;;4.63;;
50781;SDS011;36749;37.428;-121.972;2023-08-08T11:33:10;9.32;;;4.82;;
50781;SDS011;36749;37.428;-121.972;2023-08-08T11:35:42;9.30;;;4.07;;
50781;SDS011;36749;37.428;-121.972;2023-08-08T11:38:14;6.55;;;4.30;;
50781;SDS011;36749;37.428;-121.972;2023-08-08T11:40:41;9.57;;;4.65;;
50781;SDS011;36749;37.428;-121.972;2023-08-08T11:43:08;10.20;;;4.60;;
50781;SDS011;36749;37.428;-121.972;2023-08-08T11:45:34;9.27;;;4.13;;
50781;SDS011;36749;37.428;-121.972;2023-08-08T11:48:01;10.98;;;4.32;;
50781;SDS011;36749;37.428;-121.972;2023-08-08T11:50:28;7.10;;;3.70;;
50781;SDS011;36749;37.428;-121.972;2023-08-08T11:52:55;9.10;;;4.32;;
50781;SDS011;36749;37.428;-121.972;2023-08-08T11:55:30;8.27;;;4.40;;
50781;SDS011;36749;37.428;-121.972;2023-08-08T11:57:57;11.40;;;5.72;;
50781;SDS011;36749;37.428;-121.972;2023-08-08T12:00:28;10.05;;;4.40;;
50781;SDS011;36749;37.428;-121.972;2023-08-08T12:02:55;8.10;;;4.22;;
50781;SDS011;36749;37.428;-121.972;2023-08-08T12:05:22;6.80;;;4.05;;
50781;SDS011;36749;37.428;-121.972;2023-08-08T12:07:49;7.13;;;4.10;;
50781;SDS011;36749;37.428;-121.972;2023-08-08T12:10:16;7.03;;;3.67;;
50781;SDS011;36749;37.428;-121.972;2023-08-08T12:12:44;8.93;;;4.30;;
50781;SDS011;36749;37.428;-121.972;2023-08-08T12:15:12;11.30;;;4.25;;
50781;SDS011;36749;37.428;-121.972;2023-08-08T12:17:39;11.05;;;4.32;;
50781;SDS011;36749;37.428;-121.972;2023-08-08T12:20:06;8.23;;;4.05;;
50781;SDS011;36749;37.428;-121.972;2023-08-08T12:22:34;9.10;;;4.53;;
50781;SDS011;36749;37.428;-121.972;2023-08-08T12:25:01;6.18;;;4.00;;
50781;SDS011;36749;37.428;-121.972;2023-08-08T12:27:28;9.90;;;4.47;;
50781;SDS011;36749;37.428;-121.972;2023-08-08T12:29:55;8.32;;;4.63;;
50781;SDS011;36749;37.428;-121.972;2023-08-08T12:32:25;8.38;;;4.35;;
50781;SDS011;36749;37.428;-121.972;2023-08-08T12:34:54;9.38;;;4.15;;
50781;SDS011;36749;37.428;-121.972;2023-08-08T12:37:21;10.32;;;4.32;;
50781;SDS011;36749;37.428;-121.972;2023-08-08T12:39:49;9.02;;;4.28;;
50781;SDS011;36749;37.428;-121.972;2023-08-08T12:42:15;7.25;;;3.70;;
50781;SDS011;36749;37.428;-121.972;2023-08-08T12:44:42;8.18;;;4.55;;
50781;SDS011;36749;37.428;-121.972;2023-08-08T12:47:08;9.93;;;4.00;;
50781;SDS011;36749;37.428;-121.972;2023-08-08T12:49:35;9.00;;;3.90;;
50781;SDS011;36749;37.428;-121.972;2023-08-08T12:52:02;8.48;;;4.13;;
50781;SDS011;36749;37.428;-121.972;2023-08-08T12:54:28;11.02;;;4.40;;
50781;SDS011;36749;37.428;-121.972;2023-08-08T12:56:54;6.05;;;3.83;;
50781;SDS011;36749;37.428;-121.972;2023-08-08T12:59:20;9.38;;;4.60;;
50781;SDS011;36749;37.428;-121.972;2023-08-08T13:01:47;9.07;;;4.10;;
50781;SDS011;36749;37.428;-121.972;2023-08-08T13:04:13;9.50;;;4.30;;
50781;SDS011;36749;37.428;-121.972;2023-08-08T13:06:39;10.13;;;4.70;;
50781;SDS011;36749;37.428;-121.972;2023-08-08T13:09:06;5.22;;;3.83;;
50781;SDS011;36749;37.428;-121.972;2023-08-08T13:11:32;9.18;;;3.90;;
50781;SDS011;36749;37.428;-121.972;2023-08-08T13:13:58;12.00;;;4.30;;
50781;SDS011;36749;37.428;-121.972;2023-08-08T13:16:25;7.60;;;3.88;;
50781;SDS011;36749;37.428;-121.972;2023-08-08T13:18:51;7.65;;;4.82;;
50781;SDS011;36749;37.428;-121.972;2023-08-08T13:21:17;9.95;;;4.10;;
50781;SDS011;36749;37.428;-121.972;2023-08-08T13:23:43;11.30;;;4.50;;
50781;SDS011;36749;37.428;-121.972;2023-08-08T13:26:11;9.32;;;3.78;;
50781;SDS011;36749;37.428;-121.972;2023-08-08T13:28:37;8.57;;;4.07;;
50781;SDS011;36749;37.428;-121.972;2023-08-08T13:31:04;8.30;;;4.30;;
50781;SDS011;36749;37.428;-121.972;2023-08-08T13:33:33;8.18;;;3.88;;
50781;SDS011;36749;37.428;-121.972;2023-08-08T13:36:00;5.55;;;3.63;;
50781;SDS011;36749;37.428;-121.972;2023-08-08T13:38:27;8.45;;;4.40;;
50781;SDS011;36749;37.428;-121.972;2023-08-08T13:40:53;9.27;;;4.85;;
50781;SDS011;36749;37.428;-121.972;2023-08-08T13:43:20;8.27;;;4.03;;
50781;SDS011;36749;37.428;-121.972;2023-08-08T13:45:46;6.60;;;3.42;;
50781;SDS011;36749;37.428;-121.972;2023-08-08T13:48:13;7.70;;;3.90;;
50781;SDS011;36749;37.428;-121.972;2023-08-08T13:50:39;7.22;;;3.80;;
50781;SDS011;36749;37.428;-121.972;2023-08-08T13:53:05;8.65;;;3.83;;
50781;SDS011;36749;37.428;-121.972;2023-08-08T13:55:32;9.57;;;3.50;;
50781;SDS011;36749;37.428;-121.972;2023-08-08T13:58:04;9.02;;;3.80;;
50781;SDS011;36749;37.428;-121.972;2023-08-08T14:00:31;6.60;;;3.40;;